createdAt,value
2023-05-14T00:01:23.876Z,10.62
2023-05-14T00:03:53.303Z,10.55
2023-05-14T00:06:21.522Z,10.52
2023-05-14T00:08:49.378Z,10.54
2023-05-14T00:11:17.254Z,10.55
2023-05-14T00:13:45.087Z,10.55
2023-05-14T00:16:13.124Z,10.58
2023-05-14T00:18:41.355Z,10.51
2023-05-14T00:21:10.505Z,10.41
2023-05-14T00:23:38.383Z,10.41
2023-05-14T00:26:06.289Z,10.44
2023-05-14T00:28:34.233Z,10.47
2023-05-14T00:31:02.117Z,10.47
2023-05-14T00:33:29.887Z,10.37
2023-05-14T00:35:57.699Z,10.35
2023-05-14T00:38:28.464Z,10.36
2023-05-14T00:40:56.646Z,10.31
2023-05-14T00:43:25.202Z,10.22
2023-05-14T00:45:56.028Z,10.21
2023-05-14T00:48:30.018Z,10.22
2023-05-14T00:51:03.102Z,10.23
2023-05-14T00:53:36.807Z,10.15
2023-05-14T00:56:08.467Z,10.10
2023-05-14T00:58:42.459Z,10.07
2023-05-14T01:04:06.561Z,10.10
2023-05-14T01:06:52.153Z,10.05
2023-05-14T01:09:31.289Z,9.97
2023-05-14T01:12:10.721Z,9.81
2023-05-14T01:14:47.189Z,9.80
2023-05-14T01:17:24.282Z,9.78
2023-05-14T01:19:58.292Z,9.72
2023-05-14T01:22:28.709Z,9.66
2023-05-14T01:25:05.363Z,9.62
2023-05-14T01:27:44.318Z,9.66
2023-05-14T01:30:21.006Z,9.69
2023-05-14T01:32:56.158Z,9.68
2023-05-14T01:35:29.538Z,9.68
2023-05-14T01:38:16.754Z,9.68
2023-05-14T01:40:47.659Z,9.65
2023-05-14T01:43:17.615Z,9.61
2023-05-14T01:45:48.535Z,9.56
2023-05-14T01:48:20.715Z,9.47
2023-05-14T01:50:52.700Z,9.47
2023-05-14T01:53:27.692Z,9.37
2023-05-14T01:56:04.584Z,9.33
2023-05-14T01:58:38.352Z,9.29
2023-05-14T02:01:10.707Z,9.24
2023-05-14T02:03:51.266Z,9.25
2023-05-14T02:06:26.219Z,9.24
2023-05-14T02:09:06.386Z,9.22
2023-05-14T02:11:40.693Z,9.24
2023-05-14T02:14:11.633Z,9.13
2023-05-14T02:16:48.144Z,9.03
2023-05-14T02:19:19.283Z,8.98
2023-05-14T02:21:55.142Z,8.95
2023-05-14T02:24:29.117Z,8.88
2023-05-14T02:27:01.361Z,8.87
2023-05-14T02:29:30.188Z,8.88
2023-05-14T02:32:03.573Z,8.86
2023-05-14T02:34:44.534Z,8.78
2023-05-14T02:37:28.913Z,8.76
2023-05-14T02:39:59.094Z,8.78
2023-05-14T02:42:33.758Z,8.74
2023-05-14T02:45:04.730Z,8.59
2023-05-14T02:47:41.482Z,8.62
2023-05-14T02:50:11.716Z,8.67
2023-05-14T02:52:51.151Z,8.71
2023-05-14T02:55:26.634Z,8.72
2023-05-14T02:57:55.693Z,8.68
2023-05-14T03:00:26.102Z,8.68
2023-05-14T03:02:58.921Z,8.68
2023-05-14T03:05:30.103Z,8.73
2023-05-14T03:07:59.572Z,8.71
2023-05-14T03:10:33.169Z,8.68
2023-05-14T03:13:02.121Z,8.68
2023-05-14T03:15:35.413Z,8.56
2023-05-14T03:18:07.674Z,8.45
2023-05-14T03:20:36.632Z,8.46
2023-05-14T03:23:07.392Z,8.38
2023-05-14T03:25:45.354Z,8.41
2023-05-14T03:28:24.792Z,8.40
2023-05-14T03:31:01.820Z,8.40
2023-05-14T03:33:32.115Z,8.42
2023-05-14T03:36:13.206Z,8.43
2023-05-14T03:38:55.369Z,8.44
2023-05-14T03:41:30.324Z,8.45
2023-05-14T03:44:01.301Z,8.44
2023-05-14T03:46:35.688Z,8.43
2023-05-14T03:49:23.250Z,8.41
2023-05-14T03:52:01.922Z,8.41
2023-05-14T03:54:36.551Z,8.40
2023-05-14T03:57:06.947Z,8.28
2023-05-14T03:59:36.692Z,8.33
2023-05-14T04:02:09.899Z,8.32
2023-05-14T04:04:38.533Z,8.19
2023-05-14T04:07:09.035Z,8.19
2023-05-14T04:09:52.232Z,8.19
2023-05-14T04:12:32.854Z,8.26
2023-05-14T04:15:04.427Z,8.31
2023-05-14T04:17:39.042Z,8.37
2023-05-14T04:20:13.991Z,8.47
2023-05-14T04:22:45.117Z,8.44
2023-05-14T04:25:15.457Z,8.49
2023-05-14T04:27:46.301Z,8.59
2023-05-14T04:30:35.878Z,8.71
2023-05-14T04:33:12.512Z,8.79
2023-05-14T04:35:41.787Z,8.94
2023-05-14T04:38:11.483Z,9.07
2023-05-14T04:40:40.056Z,9.13
2023-05-14T04:43:14.903Z,9.26
2023-05-14T04:46:02.490Z,9.45
2023-05-14T04:48:39.890Z,9.50
2023-05-14T04:51:14.341Z,9.53
2023-05-14T04:53:44.757Z,9.74
2023-05-14T04:56:15.081Z,9.61
2023-05-14T04:58:50.314Z,9.72
2023-05-14T05:01:22.502Z,9.89
2023-05-14T05:03:58.414Z,9.75
2023-05-14T05:06:30.160Z,10.23
2023-05-14T05:09:03.505Z,10.33
2023-05-14T05:11:31.414Z,10.75
2023-05-14T05:14:00.765Z,11.04
2023-05-14T05:16:28.653Z,10.96
2023-05-14T05:18:56.553Z,11.19
2023-05-14T05:21:24.444Z,11.05
2023-05-14T05:23:52.213Z,11.22
2023-05-14T05:26:20.097Z,11.47
2023-05-14T05:28:47.924Z,11.23
2023-05-14T05:31:19.643Z,11.14
2023-05-14T05:33:49.216Z,11.69
2023-05-14T05:36:17.068Z,11.67
2023-05-14T05:38:44.833Z,11.62
2023-05-14T05:41:12.640Z,11.85
2023-05-14T05:43:40.637Z,11.82
2023-05-14T05:46:08.545Z,12.15
2023-05-14T05:48:37.743Z,12.27
2023-05-14T05:51:05.947Z,12.30
2023-05-14T05:53:33.837Z,12.77
2023-05-14T05:56:01.638Z,12.48
2023-05-14T05:58:29.464Z,12.79
2023-05-14T06:00:58.191Z,12.82
2023-05-14T06:03:27.018Z,12.61
2023-05-14T06:05:56.160Z,12.57
2023-05-14T06:08:23.969Z,13.50
2023-05-14T06:10:51.821Z,14.10
2023-05-14T06:13:19.599Z,13.47
2023-05-14T06:15:47.380Z,13.96
2023-05-14T06:18:15.296Z,13.90
2023-05-14T06:20:43.250Z,14.18
2023-05-14T06:23:12.510Z,14.31
2023-05-14T06:25:40.378Z,14.95
2023-05-14T06:28:08.172Z,15.40
2023-05-14T06:30:35.974Z,15.95
2023-05-14T06:33:03.947Z,16.44
2023-05-14T06:35:31.887Z,16.91
2023-05-14T06:37:59.852Z,17.14
2023-05-14T06:40:29.058Z,17.51
2023-05-14T06:42:56.820Z,16.98
2023-05-14T06:45:24.683Z,17.18
2023-05-14T06:47:52.652Z,17.35
2023-05-14T06:50:20.569Z,17.00
2023-05-14T06:52:48.709Z,17.09
2023-05-14T06:55:16.549Z,17.34
2023-05-14T06:57:45.733Z,17.72
2023-05-14T07:00:15.701Z,18.41
2023-05-14T07:02:43.558Z,18.41
2023-05-14T07:05:11.558Z,18.75
2023-05-14T07:07:39.556Z,18.85
2023-05-14T07:10:08.519Z,19.62
2023-05-14T07:12:36.356Z,19.52
2023-05-14T07:15:06.677Z,19.42
2023-05-14T07:17:34.740Z,19.89
2023-05-14T07:20:02.806Z,19.65
2023-05-14T07:22:30.709Z,19.02
2023-05-14T07:24:58.590Z,19.72
2023-05-14T07:27:26.396Z,20.41
2023-05-14T07:29:54.226Z,20.39
2023-05-14T07:32:25.131Z,20.78
2023-05-14T07:34:53.153Z,20.89
2023-05-14T07:37:23.929Z,21.10
2023-05-14T07:39:52.081Z,21.81
2023-05-14T07:42:31.701Z,22.15
2023-05-14T07:45:02.854Z,21.71
2023-05-14T07:47:32.461Z,22.00
2023-05-14T07:50:00.943Z,22.45
2023-05-14T07:52:28.947Z,22.44
2023-05-14T07:54:56.809Z,22.47
2023-05-14T07:57:24.643Z,21.80
2023-05-14T07:59:52.538Z,23.06
2023-05-14T08:02:20.497Z,23.55
2023-05-14T08:04:49.786Z,23.67
2023-05-14T08:07:17.638Z,23.58
2023-05-14T08:09:45.463Z,23.98
2023-05-14T08:12:13.313Z,24.82
2023-05-14T08:14:41.662Z,24.45
2023-05-14T08:17:09.806Z,24.46
2023-05-14T08:19:37.905Z,24.32
2023-05-14T08:22:07.437Z,25.79
2023-05-14T08:24:35.434Z,26.03
2023-05-14T08:27:03.401Z,24.33
2023-05-14T08:29:31.355Z,25.28
2023-05-14T08:32:03.853Z,26.19
2023-05-14T08:34:39.928Z,25.62
2023-05-14T08:37:09.139Z,26.08
2023-05-14T08:39:37.028Z,26.37
2023-05-14T08:42:07.998Z,25.31
2023-05-14T08:44:40.387Z,25.71
2023-05-14T08:47:13.661Z,26.65
2023-05-14T08:49:42.701Z,26.86
2023-05-14T08:52:12.424Z,26.79
2023-05-14T08:54:40.906Z,26.50
2023-05-14T08:57:10.773Z,27.34
2023-05-14T08:59:38.992Z,26.23
2023-05-14T09:02:07.852Z,26.01
2023-05-14T09:04:35.722Z,26.14
2023-05-14T09:07:06.627Z,26.66
2023-05-14T09:09:36.201Z,26.73
2023-05-14T09:12:04.309Z,28.00
2023-05-14T09:14:34.110Z,28.55
2023-05-14T09:17:02.311Z,27.31
2023-05-14T09:19:30.170Z,27.35
2023-05-14T09:21:59.607Z,27.00
2023-05-14T09:24:29.657Z,26.74
2023-05-14T09:26:59.805Z,27.81
2023-05-14T09:29:28.516Z,26.42
2023-05-14T09:31:57.393Z,26.06
2023-05-14T09:34:26.187Z,28.38
2023-05-14T09:36:57.285Z,26.29
2023-05-14T09:39:25.662Z,27.96
2023-05-14T09:41:53.836Z,27.68
2023-05-14T09:44:23.438Z,26.92
2023-05-14T09:46:51.673Z,26.80
2023-05-14T09:49:19.947Z,28.20
2023-05-14T09:51:48.202Z,29.12
2023-05-14T09:54:16.223Z,29.93
2023-05-14T09:56:45.197Z,29.99
2023-05-14T09:59:13.164Z,28.49
2023-05-14T10:01:44.639Z,27.75
2023-05-14T10:04:13.592Z,27.25
2023-05-14T10:06:42.871Z,28.42
2023-05-14T10:09:13.288Z,28.66
2023-05-14T10:11:45.058Z,27.90
2023-05-14T10:14:18.216Z,26.20
2023-05-14T10:16:50.191Z,25.21
2023-05-14T10:19:19.684Z,24.36
2023-05-14T10:21:54.099Z,24.53
2023-05-14T10:24:22.453Z,24.28
2023-05-14T10:26:50.550Z,24.73
2023-05-14T10:29:18.484Z,26.05
2023-05-14T10:31:50.094Z,26.54
2023-05-14T10:34:37.525Z,26.70
2023-05-14T10:37:06.335Z,26.61
2023-05-14T10:39:45.339Z,27.29
2023-05-14T10:42:14.064Z,29.07
2023-05-14T10:44:48.650Z,28.37
2023-05-14T10:47:18.582Z,25.45
2023-05-14T10:49:49.140Z,26.79
2023-05-14T10:52:20.700Z,26.44
2023-05-14T10:54:53.047Z,26.56
2023-05-14T10:57:23.302Z,24.71
2023-05-14T10:59:53.272Z,24.93
2023-05-14T11:02:26.190Z,23.20
2023-05-14T11:04:59.503Z,23.29
2023-05-14T11:07:32.938Z,22.47
2023-05-14T11:10:06.823Z,22.48
2023-05-14T11:12:35.820Z,22.59
2023-05-14T11:15:06.092Z,22.33
2023-05-14T11:17:36.807Z,22.31
2023-05-14T11:20:06.406Z,22.17
2023-05-14T11:22:34.684Z,21.83
2023-05-14T11:25:02.767Z,21.82
2023-05-14T11:27:31.697Z,22.16
2023-05-14T11:30:00.955Z,22.27
2023-05-14T11:32:29.061Z,22.62
2023-05-14T11:34:58.431Z,22.68
2023-05-14T11:37:26.298Z,22.27
2023-05-14T11:39:55.273Z,22.36
2023-05-14T11:42:25.011Z,22.38
2023-05-14T11:44:56.881Z,22.65
2023-05-14T11:47:24.841Z,22.64
2023-05-14T11:49:52.807Z,22.60
2023-05-14T11:52:22.271Z,23.00
2023-05-14T11:54:50.921Z,23.02
2023-05-14T11:57:21.064Z,22.85
2023-05-14T11:59:50.663Z,22.98
2023-05-14T12:02:19.803Z,23.40
2023-05-14T12:04:52.031Z,23.50
2023-05-14T12:07:20.455Z,23.13
2023-05-14T12:09:50.768Z,23.21
2023-05-14T12:12:20.241Z,23.02
2023-05-14T12:14:48.360Z,23.78
2023-05-14T12:17:17.732Z,24.42
2023-05-14T12:19:47.026Z,24.93
2023-05-14T12:22:16.661Z,24.83
2023-05-14T12:24:45.134Z,25.97
2023-05-14T12:27:14.762Z,25.17
2023-05-14T12:29:44.784Z,26.44
2023-05-14T12:32:12.738Z,27.27
2023-05-14T12:34:40.581Z,26.40
2023-05-14T12:37:08.503Z,26.25
2023-05-14T12:39:36.882Z,26.09
2023-05-14T12:42:04.956Z,25.52
2023-05-14T12:44:34.278Z,25.38
2023-05-14T12:47:02.208Z,25.41
2023-05-14T12:49:30.155Z,26.59
2023-05-14T12:52:17.087Z,26.89
2023-05-14T12:54:45.896Z,27.03
2023-05-14T12:57:13.835Z,26.26
2023-05-14T12:59:43.043Z,25.47
2023-05-14T13:02:10.911Z,24.47
2023-05-14T13:04:39.302Z,25.21
2023-05-14T13:07:08.810Z,25.40
2023-05-14T13:09:36.724Z,25.42
2023-05-14T13:12:05.074Z,25.47
2023-05-14T13:14:32.924Z,25.56
2023-05-14T13:17:02.165Z,25.65
2023-05-14T13:19:30.081Z,25.33
2023-05-14T13:21:58.081Z,25.29
2023-05-14T13:24:28.540Z,25.12
2023-05-14T13:26:56.612Z,24.74
2023-05-14T13:29:25.532Z,23.52
2023-05-14T13:31:53.806Z,23.39
2023-05-14T13:34:23.072Z,23.47
2023-05-14T13:36:51.162Z,23.68
2023-05-14T13:41:50.795Z,23.53
2023-05-14T13:44:18.721Z,23.86
2023-05-14T13:46:46.673Z,23.38
2023-05-14T13:49:14.615Z,23.90
2023-05-14T13:51:43.922Z,24.11
2023-05-14T13:54:11.824Z,24.53
2023-05-14T13:56:39.808Z,25.01
2023-05-14T13:59:07.735Z,24.85
2023-05-14T14:01:35.659Z,25.03
2023-05-14T14:04:03.588Z,25.21
2023-05-14T14:06:33.139Z,24.85
2023-05-14T14:09:02.419Z,24.67
2023-05-14T14:11:30.342Z,24.47
2023-05-14T14:13:58.223Z,24.06
2023-05-14T14:16:26.066Z,22.91
2023-05-14T14:18:54.062Z,23.21
2023-05-14T14:21:21.942Z,22.98
2023-05-14T14:23:49.721Z,23.24
2023-05-14T14:26:18.903Z,23.52
2023-05-14T14:28:46.770Z,23.61
2023-05-14T14:31:14.910Z,24.08
2023-05-14T14:33:42.907Z,23.80
2023-05-14T14:36:11.364Z,24.04
2023-05-14T14:38:39.943Z,24.15
2023-05-14T14:41:08.004Z,23.99
2023-05-14T14:43:37.740Z,23.35
2023-05-14T14:46:05.805Z,23.13
2023-05-14T14:48:37.448Z,22.95
2023-05-14T14:51:06.671Z,23.03
2023-05-14T14:53:35.917Z,23.02
2023-05-14T14:56:04.096Z,23.15
2023-05-14T14:58:32.056Z,23.49
2023-05-14T15:01:02.089Z,23.55
2023-05-14T15:03:30.195Z,23.56
2023-05-14T15:05:58.254Z,23.45
2023-05-14T15:08:27.582Z,23.43
2023-05-14T15:10:55.867Z,23.40
2023-05-14T15:13:24.390Z,23.20
2023-05-14T15:15:52.851Z,23.29
2023-05-14T15:18:22.231Z,23.23
2023-05-14T15:20:50.610Z,23.30
2023-05-14T15:23:18.523Z,23.38
2023-05-14T15:25:46.436Z,23.47
2023-05-14T15:28:14.289Z,22.84
2023-05-14T15:30:42.119Z,22.69
2023-05-14T15:33:10.121Z,22.42
2023-05-14T15:35:39.363Z,22.33
2023-05-14T15:38:08.246Z,22.27
2023-05-14T15:40:36.160Z,22.44
2023-05-14T15:43:04.182Z,22.42
2023-05-14T15:45:32.112Z,22.24
2023-05-14T15:48:00.055Z,22.36
2023-05-14T15:50:28.017Z,22.41
2023-05-14T15:52:57.361Z,22.11
2023-05-14T15:55:25.308Z,21.86
2023-05-14T15:57:53.123Z,22.08
2023-05-14T16:00:21.790Z,22.39
2023-05-14T16:02:49.872Z,22.57
2023-05-14T16:05:17.880Z,22.39
2023-05-14T16:07:45.790Z,21.98
2023-05-14T16:10:15.073Z,22.21
2023-05-14T16:12:42.911Z,22.34
2023-05-14T16:15:11.688Z,22.42
2023-05-14T16:17:39.877Z,22.28
2023-05-14T16:20:09.608Z,22.09
2023-05-14T16:22:37.724Z,22.12
2023-05-14T16:25:06.410Z,21.90
2023-05-14T16:27:36.531Z,21.79
2023-05-14T16:30:05.080Z,21.86
2023-05-14T16:32:33.741Z,21.57
2023-05-14T16:35:02.672Z,21.73
2023-05-14T16:37:30.648Z,21.82
2023-05-14T16:39:58.485Z,21.86
2023-05-14T16:42:26.766Z,21.96
2023-05-14T16:44:55.874Z,22.01
2023-05-14T16:47:23.749Z,21.99
2023-05-14T16:49:51.617Z,21.96
2023-05-14T16:52:19.499Z,21.90
2023-05-14T16:54:47.235Z,21.72
2023-05-14T16:57:15.140Z,21.79
2023-05-14T16:59:43.080Z,21.89
2023-05-14T17:02:12.286Z,21.84
2023-05-14T17:04:42.124Z,21.84
2023-05-14T17:07:10.244Z,21.87
2023-05-14T17:09:38.460Z,21.72
2023-05-14T17:12:06.940Z,21.66
2023-05-14T17:14:34.857Z,21.55
2023-05-14T17:17:03.085Z,21.59
2023-05-14T17:19:32.330Z,21.61
2023-05-14T17:22:00.572Z,21.50
2023-05-14T17:24:28.533Z,21.42
2023-05-14T17:26:56.555Z,21.35
2023-05-14T17:29:24.560Z,21.41
2023-05-14T17:31:52.543Z,21.44
2023-05-14T17:34:21.070Z,21.23
2023-05-14T17:36:50.630Z,21.01
2023-05-14T17:39:18.451Z,21.15
2023-05-14T17:41:46.360Z,21.17
2023-05-14T17:44:14.429Z,21.12
2023-05-14T17:46:42.649Z,21.02
2023-05-14T17:49:11.781Z,20.92
2023-05-14T17:51:39.691Z,20.91
2023-05-14T17:54:09.006Z,20.70
2023-05-14T17:56:37.280Z,20.66
2023-05-14T17:59:05.571Z,20.52
2023-05-14T18:01:33.799Z,20.39
2023-05-14T18:04:01.717Z,20.38
2023-05-14T18:06:29.756Z,20.38
2023-05-14T18:08:57.729Z,20.42
2023-05-14T18:11:32.650Z,20.38
2023-05-14T18:14:00.828Z,20.09
2023-05-14T18:16:29.259Z,20.10
2023-05-14T18:18:57.246Z,20.16
2023-05-14T18:21:25.223Z,20.02
2023-05-14T18:23:53.116Z,20.06
2023-05-14T18:26:21.896Z,20.08
2023-05-14T18:28:51.424Z,20.06
2023-05-14T18:31:19.588Z,20.00
2023-05-14T18:33:47.520Z,19.81
2023-05-14T18:36:15.466Z,19.75
2023-05-14T18:38:43.348Z,19.79
2023-05-14T18:41:11.193Z,19.53
2023-05-14T18:43:39.114Z,19.43
2023-05-14T18:46:08.481Z,19.29
2023-05-14T18:48:36.364Z,19.23
2023-05-14T18:51:05.349Z,19.16
2023-05-14T18:53:33.269Z,19.10
2023-05-14T18:56:01.330Z,18.97
2023-05-14T18:58:29.198Z,18.90
2023-05-14T19:00:58.387Z,18.71
2023-05-14T19:03:28.142Z,18.69
2023-05-14T19:05:56.857Z,18.68
2023-05-14T19:08:25.365Z,18.71
2023-05-14T19:10:54.825Z,18.61
2023-05-14T19:13:23.776Z,18.58
2023-05-14T19:15:54.705Z,18.55
2023-05-14T19:18:23.195Z,18.45
2023-05-14T19:20:52.692Z,18.12
2023-05-14T19:23:21.062Z,18.08
2023-05-14T19:25:49.025Z,17.95
2023-05-14T19:28:19.861Z,17.73
2023-05-14T19:30:47.887Z,17.62
2023-05-14T19:33:15.957Z,17.60
2023-05-14T19:35:43.959Z,17.51
2023-05-14T19:38:14.649Z,17.41
2023-05-14T19:40:44.392Z,17.36
2023-05-14T19:43:12.991Z,17.33
2023-05-14T19:45:42.627Z,17.33
2023-05-14T19:48:12.397Z,17.24
2023-05-14T19:50:41.405Z,17.10
2023-05-14T19:53:09.303Z,17.11
2023-05-14T19:55:38.713Z,16.97
2023-05-14T19:58:06.621Z,16.84
2023-05-14T20:00:34.507Z,16.77
2023-05-14T20:03:02.591Z,16.71
2023-05-14T20:05:30.631Z,16.70
2023-05-14T20:07:58.479Z,16.61
2023-05-14T20:10:26.662Z,16.67
2023-05-14T20:12:56.215Z,16.53
2023-05-14T20:15:24.280Z,16.51
2023-05-14T20:17:53.601Z,16.50
2023-05-14T20:20:22.279Z,16.47
2023-05-14T20:22:50.695Z,16.39
2023-05-14T20:25:18.883Z,16.27
2023-05-14T20:27:47.720Z,16.24
2023-05-14T20:30:20.123Z,16.25
2023-05-14T20:32:50.374Z,16.17
2023-05-14T20:35:21.445Z,16.29
2023-05-14T20:37:50.683Z,16.21
2023-05-14T20:40:21.529Z,16.27
2023-05-14T20:42:51.484Z,16.33
2023-05-14T20:45:21.642Z,16.28
2023-05-14T20:47:50.101Z,16.23
2023-05-14T20:50:23.979Z,16.25
2023-05-14T20:52:57.350Z,16.27
2023-05-14T20:55:32.862Z,16.18
2023-05-14T20:58:01.205Z,16.17
2023-05-14T21:00:30.804Z,16.27
2023-05-14T21:03:00.206Z,16.33
2023-05-14T21:05:29.047Z,16.37
2023-05-14T21:07:57.262Z,16.30
2023-05-14T21:10:28.792Z,16.29
2023-05-14T21:13:02.369Z,16.17
2023-05-14T21:15:32.733Z,15.97
2023-05-14T21:18:01.226Z,15.99
2023-05-14T21:20:30.911Z,15.95
2023-05-14T21:23:01.269Z,15.91
2023-05-14T21:25:31.800Z,15.88
2023-05-14T21:28:00.154Z,15.90
2023-05-14T21:30:32.851Z,15.85
2023-05-14T21:33:02.208Z,15.88
2023-05-14T21:35:30.188Z,15.91
2023-05-14T21:38:05.883Z,15.95
2023-05-14T21:40:34.051Z,15.98
2023-05-14T21:43:04.796Z,15.99
2023-05-14T21:45:37.590Z,15.79
2023-05-14T21:48:07.914Z,15.74
2023-05-14T21:50:37.108Z,15.68
2023-05-14T21:53:06.899Z,15.62
2023-05-14T21:55:36.133Z,15.59
2023-05-14T21:58:07.119Z,15.57
2023-05-14T22:00:36.754Z,15.59
2023-05-14T22:03:09.189Z,15.60
2023-05-14T22:05:38.065Z,15.61
2023-05-14T22:08:11.255Z,15.51
2023-05-14T22:10:47.065Z,15.47
2023-05-14T22:13:17.800Z,15.41
2023-05-14T22:15:47.409Z,15.25
2023-05-14T22:18:16.396Z,15.12
2023-05-14T22:20:44.261Z,15.01
2023-05-14T22:23:13.055Z,15.03
2023-05-14T22:25:41.032Z,15.06
2023-05-14T22:28:08.958Z,14.96
2023-05-14T22:30:36.882Z,15.00
2023-05-14T22:33:06.152Z,15.08
2023-05-14T22:35:34.109Z,15.15
2023-05-14T22:38:02.031Z,15.14
2023-05-14T22:40:29.856Z,15.10
2023-05-14T22:42:57.683Z,15.12
2023-05-14T22:45:25.773Z,15.10
2023-05-14T22:47:54.240Z,15.03
2023-05-14T22:50:23.581Z,15.04
2023-05-14T22:52:51.483Z,15.06
2023-05-14T22:55:19.414Z,15.06
2023-05-14T22:57:47.304Z,15.06
2023-05-14T23:00:16.160Z,15.00
2023-05-14T23:02:44.504Z,14.89
2023-05-14T23:05:12.463Z,14.82
2023-05-14T23:07:41.809Z,14.80
2023-05-14T23:10:10.478Z,14.73
2023-05-14T23:12:38.419Z,14.68
2023-05-14T23:15:07.359Z,14.64
2023-05-14T23:17:35.516Z,14.60
2023-05-14T23:20:04.889Z,14.45
2023-05-14T23:22:32.968Z,14.45
2023-05-14T23:25:02.216Z,14.45
2023-05-14T23:27:29.983Z,14.39
2023-05-14T23:29:57.944Z,14.32
2023-05-14T23:32:25.848Z,14.18
2023-05-14T23:34:53.826Z,14.12
2023-05-14T23:37:21.798Z,14.08
2023-05-14T23:39:49.668Z,13.92
2023-05-14T23:42:19.060Z,13.86
2023-05-14T23:44:47.020Z,13.76
2023-05-14T23:47:14.895Z,13.74
2023-05-14T23:49:42.887Z,13.70
2023-05-14T23:52:11.312Z,13.59
2023-05-14T23:54:39.294Z,13.57
2023-05-14T23:57:07.539Z,13.55
2023-05-14T23:59:36.879Z,13.38
